Terminal Aerodrome Forecast
Issued by NWS

Home | Current Version | Previous Version | Text Only | Print | Product List | Glossary On
Versions: 1 2 3 4 5 6 7 8 9 10 11 12 13 14 15 16 17 18 19 20 21 22 23 24 25 26 27 28 29 30 31
000
FTUS44 KOUN 221501 AAA
TAFPNC
TAF AMD
KPNC 221501Z 2215/2312 35017G25KT P6SM SCT025 BKN050
      TEMPO 2215/2216 BKN025
     FM221900 34016G25KT P6SM FEW250
     FM230000 32008KT P6SM SKC=

USA.gov is the U.S. government's official web portal to all federal, state and local government web resources and services.